createdAt,value
2023-04-04T04:45:19.198Z,2
2023-04-04T05:00:19.047Z,10.8
2023-04-04T05:15:23.520Z,31.8
2023-04-04T05:30:19.245Z,59.2
2023-04-04T05:45:18.656Z,95.2
2023-04-04T06:00:19.566Z,113
2023-04-04T06:15:19.632Z,131.5
2023-04-04T06:30:19.707Z,145.2
2023-04-04T06:45:20.727Z,162.1
2023-04-04T07:00:20.783Z,177.7
2023-04-04T07:15:19.309Z,189.7
2023-04-04T07:30:19.439Z,192.8
2023-04-04T07:45:19.288Z,230.8
2023-04-04T08:00:19.688Z,313.3
2023-04-04T08:15:19.697Z,265
2023-04-04T08:30:18.875Z,240.7
2023-04-04T08:45:19.496Z,294.5
2023-04-04T09:00:19.242Z,284.3
2023-04-04T09:15:19.540Z,354.1
2023-04-04T09:30:19.506Z,385
2023-04-04T09:45:29.398Z,408.3
2023-04-04T10:00:18.878Z,400.6
2023-04-04T10:15:18.910Z,429.9
2023-04-04T10:30:19.331Z,420
2023-04-04T10:45:20.975Z,412.4
2023-04-04T11:00:19.898Z,389.9
2023-04-04T11:15:19.273Z,448
2023-04-04T11:30:19.062Z,420.7
2023-04-04T11:45:18.863Z,443.9
2023-04-04T12:00:19.156Z,488.2
2023-04-04T12:15:19.774Z,547.8
2023-04-04T12:30:19.633Z,566.7
2023-04-04T12:45:19.439Z,537
2023-04-04T13:00:19.892Z,525.1
2023-04-04T13:15:19.703Z,635.7
2023-04-04T13:30:19.661Z,968.9
2023-04-04T13:45:19.403Z,5481.3
2023-04-04T14:00:19.002Z,2363.3
2023-04-04T14:15:19.607Z,2530.5
2023-04-04T14:30:19.562Z,2607.9
2023-04-04T14:45:19.596Z,2061.8
2023-04-04T15:00:19.101Z,1950.3
2023-04-04T15:15:20.589Z,1218.1
2023-04-04T15:30:22.340Z,1008.3
2023-04-04T15:45:19.375Z,926.4
2023-04-04T16:00:19.306Z,659.9
2023-04-04T16:15:18.974Z,1246.8
2023-04-04T16:30:24.334Z,1083.1
2023-04-04T16:45:19.194Z,908.5
2023-04-04T17:00:19.741Z,749.9
2023-04-04T17:15:19.233Z,568.8
2023-04-04T17:30:19.368Z,84.6
2023-04-04T17:45:19.126Z,43.4
2023-04-04T18:00:19.910Z,16.8
2023-04-04T18:15:18.941Z,3.3
2023-04-04T18:30:19.724Z,1.4
2023-04-04T18:45:21.092Z,1.4
2023-04-04T19:00:19.471Z,1.4
2023-04-04T19:15:19.424Z,1.4
2023-04-04T21:00:19.620Z,4.4
2023-04-04T21:15:18.817Z,4.4
2023-04-04T21:30:19.169Z,4.4
2023-04-04T21:45:19.192Z,4.4
